createdAt,value
2023-03-29T00:00:35.873Z,53.90
2023-03-29T00:03:07.799Z,53.42
2023-03-29T00:05:41.096Z,53.28
2023-03-29T00:08:14.916Z,53.67
2023-03-29T00:10:49.174Z,51.78
2023-03-29T00:13:20.889Z,50.59
2023-03-29T00:15:54.185Z,50.54
2023-03-29T00:18:25.800Z,50.30
2023-03-29T00:20:59.728Z,51.44
2023-03-29T00:23:31.686Z,51.48
2023-03-29T00:26:05.937Z,53.25
2023-03-29T00:28:39.331Z,55.68
2023-03-29T00:31:15.538Z,53.33
2023-03-29T00:33:47.513Z,52.64
2023-03-29T00:36:19.021Z,52.24
2023-03-29T00:38:50.984Z,53.15
2023-03-29T00:41:22.665Z,48.91
2023-03-29T00:44:02.013Z,47.96
2023-03-29T00:46:34.951Z,48.48
2023-03-29T00:49:12.716Z,47.97
2023-03-29T00:51:45.034Z,47.45
2023-03-29T00:54:18.740Z,47.05
2023-03-29T00:56:51.235Z,45.72
2023-03-29T00:59:28.170Z,45.40
2023-03-29T01:02:05.405Z,45.06
2023-03-29T01:04:53.076Z,45.77
2023-03-29T01:07:57.922Z,45.37
2023-03-29T01:10:55.164Z,44.60
2023-03-29T01:13:52.801Z,44.75
2023-03-29T01:16:26.567Z,44.66
2023-03-29T01:18:58.681Z,44.30
2023-03-29T01:21:36.261Z,42.99
2023-03-29T01:24:47.020Z,42.45
2023-03-29T01:28:08.011Z,42.64
2023-03-29T01:30:52.568Z,42.02
2023-03-29T01:33:31.608Z,44.18
2023-03-29T01:36:27.189Z,44.46
2023-03-29T01:39:05.906Z,43.87
2023-03-29T01:41:59.392Z,43.28
2023-03-29T01:44:38.239Z,42.23
2023-03-29T01:47:19.884Z,42.11
2023-03-29T01:50:07.502Z,43.21
2023-03-29T01:52:53.800Z,42.76
2023-03-29T01:55:33.831Z,42.48
2023-03-29T01:58:09.478Z,43.13
2023-03-29T02:00:42.132Z,45.48
2023-03-29T02:03:17.430Z,43.62
2023-03-29T02:05:50.504Z,42.64
2023-03-29T02:08:23.096Z,43.48
2023-03-29T02:10:54.835Z,43.46
2023-03-29T02:13:27.282Z,44.98
2023-03-29T02:16:03.151Z,45.10
2023-03-29T02:18:36.055Z,46.43
2023-03-29T02:21:09.449Z,47.95
2023-03-29T02:23:45.831Z,48.48
2023-03-29T02:26:17.884Z,49.43
2023-03-29T02:28:49.944Z,50.05
2023-03-29T02:31:31.973Z,47.27
2023-03-29T02:34:13.756Z,46.67
2023-03-29T02:36:52.771Z,46.81
2023-03-29T02:39:27.768Z,46.07
2023-03-29T02:41:59.858Z,46.05
2023-03-29T02:44:36.581Z,45.50
2023-03-29T02:47:20.829Z,47.17
2023-03-29T02:49:53.011Z,45.89
2023-03-29T02:52:33.445Z,45.17
2023-03-29T02:55:14.661Z,45.49
2023-03-29T02:57:46.272Z,45.63
2023-03-29T03:00:23.141Z,45.07
2023-03-29T03:02:55.194Z,45.55
2023-03-29T03:05:26.750Z,44.88
2023-03-29T03:07:58.564Z,46.47
2023-03-29T03:10:30.548Z,46.51
2023-03-29T03:13:02.770Z,46.49
2023-03-29T03:15:37.383Z,46.71
2023-03-29T03:18:10.657Z,48.16
2023-03-29T03:20:42.626Z,46.47
2023-03-29T03:23:14.187Z,47.32
2023-03-29T03:25:45.750Z,46.98
2023-03-29T03:28:17.499Z,47.77
2023-03-29T03:30:49.610Z,48.20
2023-03-29T03:33:21.216Z,47.74
2023-03-29T03:35:57.025Z,47.63
2023-03-29T03:38:29.811Z,49.47
2023-03-29T03:41:01.680Z,50.15
2023-03-29T03:43:34.633Z,49.52
2023-03-29T03:46:08.514Z,48.91
2023-03-29T03:48:40.157Z,49.96
2023-03-29T03:51:12.047Z,49.14
2023-03-29T03:53:43.731Z,48.66
2023-03-29T03:56:16.294Z,48.19
2023-03-29T03:58:48.002Z,48.83
2023-03-29T04:01:19.657Z,49.84
2023-03-29T04:03:51.347Z,50.66
2023-03-29T04:06:23.034Z,49.44
2023-03-29T04:08:54.670Z,48.59
2023-03-29T04:11:26.202Z,47.83
2023-03-29T04:13:58.149Z,48.98
2023-03-29T04:16:30.208Z,54.42
2023-03-29T04:19:01.929Z,55.59
2023-03-29T04:21:34.380Z,55.52
2023-03-29T04:24:06.738Z,55.13
2023-03-29T04:26:38.423Z,54.67
2023-03-29T04:29:10.101Z,54.52
2023-03-29T04:31:41.778Z,54.03
2023-03-29T04:34:13.496Z,55.11
2023-03-29T04:36:45.185Z,55.85
2023-03-29T04:39:19.979Z,56.17
2023-03-29T04:41:51.599Z,56.12
2023-03-29T04:44:23.150Z,55.33
2023-03-29T04:46:54.812Z,56.26
2023-03-29T04:49:26.425Z,57.29
2023-03-29T04:51:57.974Z,57.26
2023-03-29T04:54:29.554Z,55.48
2023-03-29T04:57:01.466Z,54.95
2023-03-29T04:59:33.415Z,53.77
2023-03-29T05:02:05.243Z,54.30
2023-03-29T05:04:36.852Z,54.86
2023-03-29T05:07:08.416Z,55.87
2023-03-29T05:09:41.613Z,55.08
2023-03-29T05:12:13.152Z,55.65
2023-03-29T05:14:44.700Z,55.18
2023-03-29T05:17:16.298Z,54.88
2023-03-29T05:19:47.916Z,54.41
2023-03-29T05:22:20.227Z,55.64
2023-03-29T05:24:52.792Z,56.30
2023-03-29T05:27:24.761Z,54.29
2023-03-29T05:29:56.310Z,55.07
2023-03-29T05:32:28.585Z,55.72
2023-03-29T05:35:00.229Z,54.49
2023-03-29T05:37:34.252Z,54.52
2023-03-29T05:40:10.316Z,55.32
2023-03-29T05:42:42.443Z,54.88
2023-03-29T05:45:14.002Z,54.82
2023-03-29T05:47:46.350Z,54.00
2023-03-29T05:50:18.084Z,54.32
2023-03-29T05:52:49.567Z,53.24
2023-03-29T05:55:21.120Z,53.15
2023-03-29T05:57:52.689Z,53.03
2023-03-29T06:00:24.584Z,51.89
2023-03-29T06:03:06.450Z,51.95
2023-03-29T06:05:56.257Z,51.13
2023-03-29T06:08:28.859Z,51.01
2023-03-29T06:11:06.580Z,51.72
2023-03-29T06:13:42.185Z,52.26
2023-03-29T06:16:13.992Z,51.21
2023-03-29T06:18:45.573Z,50.51
2023-03-29T06:21:17.136Z,50.54
2023-03-29T06:23:48.723Z,51.54
2023-03-29T06:26:20.373Z,50.70
2023-03-29T06:28:52.509Z,50.59
2023-03-29T06:31:24.842Z,49.91
2023-03-29T06:33:58.729Z,49.63
2023-03-29T06:36:34.280Z,49.33
2023-03-29T06:39:08.612Z,50.89
2023-03-29T06:41:40.300Z,50.55
2023-03-29T06:44:11.877Z,50.92
2023-03-29T06:46:44.104Z,49.16
2023-03-29T06:49:18.499Z,50.05
2023-03-29T06:51:50.057Z,50.20
2023-03-29T06:54:22.125Z,49.40
2023-03-29T06:56:53.668Z,48.96
2023-03-29T06:59:26.555Z,49.35
2023-03-29T07:01:58.620Z,49.51
2023-03-29T07:04:32.191Z,49.41
2023-03-29T07:07:04.132Z,49.43
2023-03-29T07:09:35.901Z,48.99
2023-03-29T07:12:08.980Z,48.87
2023-03-29T07:14:40.473Z,48.57
2023-03-29T07:17:12.043Z,49.45
2023-03-29T07:19:43.879Z,48.98
2023-03-29T07:22:15.473Z,49.97
2023-03-29T07:24:47.179Z,49.89
2023-03-29T07:27:19.576Z,50.28
2023-03-29T07:29:51.416Z,49.43
2023-03-29T07:32:23.092Z,49.70
2023-03-29T07:34:55.654Z,51.48
2023-03-29T07:37:29.778Z,50.07
2023-03-29T07:40:03.380Z,49.41
2023-03-29T07:42:39.532Z,48.99
2023-03-29T07:45:13.694Z,47.77
2023-03-29T07:47:46.330Z,48.33
2023-03-29T07:50:18.098Z,47.73
2023-03-29T07:52:50.124Z,48.24
2023-03-29T07:55:24.093Z,47.69
2023-03-29T07:57:55.843Z,47.21
2023-03-29T08:00:28.254Z,46.92
2023-03-29T08:03:00.758Z,48.98
2023-03-29T08:05:40.772Z,48.18
2023-03-29T08:08:14.158Z,47.22
2023-03-29T08:10:46.083Z,46.63
2023-03-29T08:13:17.769Z,45.89
2023-03-29T08:15:50.296Z,45.68
2023-03-29T08:18:21.825Z,43.40
2023-03-29T08:20:53.406Z,44.40
2023-03-29T08:23:25.003Z,43.22
2023-03-29T08:25:56.609Z,42.84
2023-03-29T08:28:28.223Z,43.22
2023-03-29T08:31:00.050Z,42.61
2023-03-29T08:33:32.064Z,42.23
2023-03-29T08:36:04.775Z,42.44
2023-03-29T08:38:36.586Z,42.00
2023-03-29T08:42:08.852Z,41.76
2023-03-29T08:45:13.418Z,42.01
2023-03-29T08:47:59.656Z,42.57
2023-03-29T08:50:40.524Z,41.52
2023-03-29T08:53:27.391Z,41.82
2023-03-29T08:56:03.045Z,41.03
2023-03-29T08:58:37.468Z,42.75
2023-03-29T09:01:12.672Z,42.32
2023-03-29T09:03:50.439Z,41.65
2023-03-29T09:06:22.205Z,42.80
2023-03-29T09:08:56.334Z,41.44
2023-03-29T09:11:51.641Z,40.51
2023-03-29T09:14:32.565Z,40.61
2023-03-29T09:17:20.049Z,40.43
2023-03-29T09:20:06.994Z,40.13
2023-03-29T09:22:52.899Z,41.05
2023-03-29T09:25:52.634Z,42.35
2023-03-29T09:28:59.691Z,41.16
2023-03-29T09:31:41.590Z,41.87
2023-03-29T09:34:43.343Z,42.39
2023-03-29T09:37:29.118Z,42.28
2023-03-29T09:40:05.069Z,41.14
2023-03-29T09:42:38.238Z,39.89
2023-03-29T09:45:10.620Z,39.62
2023-03-29T09:47:55.190Z,39.60
2023-03-29T09:50:35.328Z,38.81
2023-03-29T09:53:09.233Z,38.81
2023-03-29T09:55:41.211Z,38.48
2023-03-29T09:58:24.475Z,39.53
2023-03-29T10:01:03.100Z,36.97
2023-03-29T10:03:36.140Z,36.35
2023-03-29T10:06:11.127Z,36.15
2023-03-29T10:08:47.814Z,36.60
2023-03-29T10:11:36.798Z,36.79
2023-03-29T10:14:26.437Z,37.47
2023-03-29T10:16:58.340Z,38.22
2023-03-29T10:19:36.770Z,38.27
2023-03-29T10:22:18.425Z,38.53
2023-03-29T10:24:53.394Z,38.15
2023-03-29T10:27:29.449Z,37.52
2023-03-29T10:30:13.421Z,37.17
2023-03-29T10:35:24.059Z,37.91
2023-03-29T10:38:01.499Z,38.43
2023-03-29T10:40:35.471Z,37.00
2023-03-29T10:43:19.404Z,37.35
2023-03-29T10:45:55.399Z,37.18
2023-03-29T10:48:31.415Z,36.06
2023-03-29T10:51:05.991Z,34.36
2023-03-29T10:53:38.185Z,35.69
2023-03-29T10:56:15.545Z,34.68
2023-03-29T10:59:27.614Z,34.78
2023-03-29T11:02:14.166Z,33.71
2023-03-29T11:05:01.434Z,33.50
2023-03-29T11:07:40.352Z,32.75
2023-03-29T11:10:36.660Z,35.15
2023-03-29T11:13:20.287Z,35.81
2023-03-29T11:16:16.987Z,35.08
2023-03-29T11:19:11.781Z,37.84
2023-03-29T11:22:08.718Z,36.84
2023-03-29T11:25:06.120Z,36.11
2023-03-29T11:28:16.131Z,35.75
2023-03-29T11:30:57.384Z,35.19
2023-03-29T11:34:12.479Z,35.67
2023-03-29T11:36:57.240Z,36.21
2023-03-29T11:40:29.756Z,37.39
2023-03-29T11:43:09.248Z,36.40
2023-03-29T11:45:53.491Z,34.98
2023-03-29T11:48:32.390Z,34.29
2023-03-29T11:51:12.978Z,34.52
2023-03-29T11:54:03.196Z,34.38
2023-03-29T11:56:52.193Z,34.83
2023-03-29T11:59:40.830Z,36.19
2023-03-29T12:02:39.573Z,35.91
2023-03-29T12:05:20.748Z,31.83
2023-03-29T12:07:59.255Z,31.45
2023-03-29T12:10:42.980Z,32.38
2023-03-29T12:13:14.445Z,34.36
2023-03-29T12:15:55.575Z,33.92
2023-03-29T12:18:42.323Z,33.74
2023-03-29T12:21:21.704Z,32.36
2023-03-29T12:23:53.498Z,33.63
2023-03-29T12:26:48.570Z,33.66
2023-03-29T12:29:44.101Z,32.54
2023-03-29T12:32:35.902Z,32.82
2023-03-29T12:35:46.672Z,31.56
2023-03-29T12:38:31.057Z,31.86
2023-03-29T12:41:19.307Z,31.89
2023-03-29T12:43:51.418Z,31.57
2023-03-29T12:46:25.763Z,31.24
2023-03-29T12:49:31.505Z,32.24
2023-03-29T12:52:19.924Z,32.12
2023-03-29T12:54:59.072Z,33.07
2023-03-29T12:58:10.780Z,33.97
2023-03-29T13:00:45.581Z,33.61
2023-03-29T13:03:55.301Z,31.66
2023-03-29T13:06:47.038Z,31.75
2023-03-29T13:09:29.845Z,31.19
2023-03-29T13:12:10.570Z,32.43
2023-03-29T13:14:55.825Z,32.34
2023-03-29T13:18:22.741Z,31.94
2023-03-29T13:21:21.201Z,30.07
2023-03-29T13:24:18.984Z,29.50
2023-03-29T13:27:10.689Z,30.14
2023-03-29T13:30:20.096Z,29.39
2023-03-29T13:33:52.538Z,28.24
2023-03-29T13:36:46.725Z,28.56
2023-03-29T13:39:28.133Z,25.35
2023-03-29T13:42:20.015Z,22.08
2023-03-29T13:44:52.460Z,23.43
2023-03-29T13:47:58.333Z,23.52
2023-03-29T13:50:57.628Z,23.03
2023-03-29T13:53:54.707Z,22.93
2023-03-29T13:56:38.755Z,23.41
2023-03-29T13:59:25.380Z,25.39
2023-03-29T14:02:00.575Z,25.90
2023-03-29T14:04:46.699Z,24.80
2023-03-29T14:07:26.187Z,25.83
2023-03-29T14:09:59.864Z,26.52
2023-03-29T14:12:40.389Z,28.17
2023-03-29T14:15:27.691Z,29.46
2023-03-29T14:18:00.731Z,28.73
2023-03-29T14:20:33.272Z,31.74
2023-03-29T14:23:15.658Z,30.24
2023-03-29T14:25:47.991Z,30.14
2023-03-29T14:28:27.942Z,29.38
2023-03-29T14:30:59.698Z,27.93
2023-03-29T14:33:34.615Z,27.51
2023-03-29T14:36:06.922Z,28.66
2023-03-29T14:38:39.798Z,27.79
2023-03-29T14:41:11.392Z,28.94
2023-03-29T14:43:47.144Z,29.86
2023-03-29T14:46:21.344Z,30.25
2023-03-29T14:48:55.796Z,30.42
2023-03-29T14:51:30.411Z,30.52
2023-03-29T14:54:04.014Z,30.63
2023-03-29T14:56:35.787Z,29.45
2023-03-29T14:59:38.784Z,26.78
2023-03-29T15:02:32.192Z,27.31
2023-03-29T15:05:07.647Z,27.66
2023-03-29T15:07:42.868Z,29.40
2023-03-29T15:10:20.717Z,31.06
2023-03-29T15:12:53.671Z,30.84
2023-03-29T15:15:25.791Z,31.64
2023-03-29T15:17:58.734Z,31.82
2023-03-29T15:20:36.539Z,32.29
2023-03-29T15:23:15.278Z,31.11
2023-03-29T15:26:06.716Z,31.58
2023-03-29T15:29:23.233Z,32.75
2023-03-29T15:31:59.199Z,31.63
2023-03-29T15:34:33.514Z,32.94
2023-03-29T15:37:05.150Z,33.67
2023-03-29T15:40:06.755Z,34.79
2023-03-29T15:42:38.314Z,34.79
2023-03-29T15:45:18.476Z,35.77
2023-03-29T15:47:50.213Z,36.20
2023-03-29T15:50:22.075Z,38.68
2023-03-29T15:53:08.656Z,39.16
2023-03-29T15:55:49.000Z,39.10
2023-03-29T15:58:27.655Z,39.40
2023-03-29T16:01:43.652Z,39.73
2023-03-29T16:04:19.014Z,39.94
2023-03-29T16:06:55.969Z,39.20
2023-03-29T16:09:27.512Z,39.28
2023-03-29T16:12:00.358Z,39.31
2023-03-29T16:14:31.957Z,38.97
2023-03-29T16:17:06.146Z,39.09
2023-03-29T16:19:41.202Z,38.22
2023-03-29T16:22:12.706Z,36.64
2023-03-29T16:24:44.308Z,37.22
2023-03-29T16:27:16.853Z,38.27
2023-03-29T16:29:48.408Z,38.03
2023-03-29T16:32:20.110Z,37.51
2023-03-29T16:34:52.327Z,37.10
2023-03-29T16:37:24.978Z,37.27
2023-03-29T16:39:56.806Z,37.25
2023-03-29T16:42:31.617Z,37.17
2023-03-29T16:45:03.446Z,36.67
2023-03-29T16:47:35.054Z,36.76
2023-03-29T16:50:08.279Z,37.98
2023-03-29T16:52:40.701Z,38.02
2023-03-29T16:55:13.510Z,37.37
2023-03-29T16:57:46.986Z,38.49
2023-03-29T17:00:20.181Z,37.43
2023-03-29T17:02:54.081Z,37.98
2023-03-29T17:05:25.937Z,37.33
2023-03-29T17:08:00.442Z,38.32
2023-03-29T17:10:32.590Z,37.98
2023-03-29T17:13:04.084Z,36.15
2023-03-29T17:15:39.425Z,36.15
2023-03-29T17:18:12.163Z,35.71
2023-03-29T17:20:43.792Z,35.62
2023-03-29T17:23:15.378Z,35.44
2023-03-29T17:25:47.160Z,35.21
2023-03-29T17:28:25.903Z,35.78
2023-03-29T17:30:57.699Z,36.21
2023-03-29T17:33:31.323Z,35.81
2023-03-29T17:36:05.919Z,36.25
2023-03-29T17:38:37.961Z,37.16
2023-03-29T17:41:09.919Z,38.23
2023-03-29T17:43:41.409Z,38.63
2023-03-29T17:46:13.174Z,39.15
2023-03-29T17:48:46.222Z,39.54
2023-03-29T17:51:19.769Z,38.20
2023-03-29T17:53:52.435Z,38.41
2023-03-29T17:56:24.381Z,38.06
2023-03-29T17:58:56.209Z,38.06
2023-03-29T18:01:28.160Z,37.33
2023-03-29T18:03:59.832Z,37.15
2023-03-29T18:06:31.349Z,37.09
2023-03-29T18:09:03.254Z,37.39
2023-03-29T18:11:38.446Z,37.87
2023-03-29T18:14:10.076Z,38.18
2023-03-29T18:16:41.877Z,38.69
2023-03-29T18:19:13.637Z,39.09
2023-03-29T18:21:45.318Z,38.52
2023-03-29T18:24:17.152Z,38.53
2023-03-29T18:26:48.638Z,38.45
2023-03-29T18:29:20.916Z,38.49
2023-03-29T18:31:57.557Z,38.87
2023-03-29T18:34:30.366Z,39.06
2023-03-29T18:37:01.894Z,39.30
2023-03-29T18:39:35.824Z,39.17
2023-03-29T18:42:08.766Z,39.46
2023-03-29T18:44:42.272Z,39.22
2023-03-29T18:47:18.192Z,39.58
2023-03-29T18:49:49.735Z,39.82
2023-03-29T18:52:21.294Z,40.51
2023-03-29T18:54:52.903Z,41.27
2023-03-29T18:57:24.663Z,41.28
2023-03-29T18:59:59.086Z,42.00
2023-03-29T19:02:30.717Z,42.04
2023-03-29T19:05:02.487Z,41.30
2023-03-29T19:07:34.851Z,42.50
2023-03-29T19:10:08.533Z,42.52
2023-03-29T19:12:40.140Z,42.94
2023-03-29T19:15:12.620Z,42.77
2023-03-29T19:17:44.233Z,41.78
2023-03-29T19:20:16.578Z,41.04
2023-03-29T19:22:48.098Z,41.87
2023-03-29T19:25:20.118Z,41.54
2023-03-29T19:27:51.756Z,41.84
2023-03-29T19:30:23.362Z,42.15
2023-03-29T19:32:54.905Z,41.85
2023-03-29T19:35:26.656Z,42.10
2023-03-29T19:37:58.240Z,42.74
2023-03-29T19:40:29.772Z,44.10
2023-03-29T19:43:01.296Z,46.14
2023-03-29T19:45:32.803Z,46.66
2023-03-29T19:48:04.467Z,46.67
2023-03-29T19:50:45.642Z,46.10
2023-03-29T19:53:17.317Z,45.97
2023-03-29T19:55:49.465Z,45.25
2023-03-29T19:58:21.655Z,48.21
2023-03-29T20:00:57.996Z,46.36
2023-03-29T20:03:29.711Z,46.41
2023-03-29T20:06:02.360Z,47.80
2023-03-29T20:08:36.221Z,48.60
2023-03-29T20:11:10.147Z,48.25
2023-03-29T20:13:45.201Z,47.14
2023-03-29T20:16:19.016Z,46.05
2023-03-29T20:18:50.779Z,45.95
2023-03-29T20:21:22.340Z,44.58
2023-03-29T20:23:54.064Z,43.88
2023-03-29T20:26:26.023Z,43.63
2023-03-29T20:28:57.649Z,43.53
2023-03-29T20:31:29.951Z,43.50
2023-03-29T20:34:01.553Z,44.21
2023-03-29T20:36:33.296Z,43.59
2023-03-29T20:39:05.130Z,42.88
2023-03-29T20:41:38.345Z,43.15
2023-03-29T20:44:10.603Z,43.78
2023-03-29T20:46:46.134Z,43.12
2023-03-29T20:49:17.697Z,42.95
2023-03-29T20:51:58.239Z,42.87
2023-03-29T20:54:29.985Z,43.25
2023-03-29T20:57:01.546Z,43.52
2023-03-29T20:59:34.455Z,43.38
2023-03-29T21:02:06.497Z,43.65
2023-03-29T21:04:38.159Z,43.12
2023-03-29T21:07:14.079Z,42.86
2023-03-29T21:09:48.278Z,43.56
2023-03-29T21:12:23.553Z,44.63
2023-03-29T21:14:55.277Z,45.47
2023-03-29T21:17:27.032Z,46.02
2023-03-29T21:19:59.132Z,45.18
2023-03-29T21:22:31.591Z,45.09
2023-03-29T21:25:06.512Z,46.81
2023-03-29T21:27:38.499Z,45.87
2023-03-29T21:30:16.567Z,46.85
2023-03-29T21:32:50.541Z,45.70
2023-03-29T21:35:31.971Z,46.30
2023-03-29T21:38:04.295Z,46.90
2023-03-29T21:40:36.660Z,46.80
2023-03-29T21:43:09.744Z,47.03
2023-03-29T21:45:43.140Z,47.43
2023-03-29T21:48:14.715Z,47.99
2023-03-29T21:50:50.044Z,46.92
2023-03-29T21:53:21.561Z,47.37
2023-03-29T21:55:53.138Z,47.34
2023-03-29T21:58:24.641Z,47.58
2023-03-29T22:01:01.146Z,47.73
2023-03-29T22:03:32.870Z,48.19
2023-03-29T22:06:10.457Z,47.52
2023-03-29T22:08:41.979Z,47.28
2023-03-29T22:11:15.844Z,48.36
2023-03-29T22:13:47.609Z,48.33
2023-03-29T22:16:19.353Z,49.66
2023-03-29T22:18:52.605Z,48.16
2023-03-29T22:21:26.945Z,50.72
2023-03-29T22:24:01.362Z,53.15
2023-03-29T22:26:33.228Z,53.49
2023-03-29T22:29:04.850Z,54.81
2023-03-29T22:31:37.773Z,54.74
2023-03-29T22:34:09.411Z,54.69
2023-03-29T22:36:41.153Z,54.93
2023-03-29T22:39:13.437Z,54.73
2023-03-29T22:41:44.972Z,54.98
2023-03-29T22:44:16.514Z,53.92
2023-03-29T22:46:48.061Z,53.75
2023-03-29T22:49:19.627Z,53.93
2023-03-29T22:51:51.617Z,54.27
2023-03-29T22:54:23.220Z,53.30
2023-03-29T22:56:54.858Z,54.34
2023-03-29T22:59:27.339Z,55.15
2023-03-29T23:01:58.897Z,53.19
2023-03-29T23:04:30.762Z,52.57
2023-03-29T23:07:02.558Z,52.09
2023-03-29T23:09:34.280Z,52.15
2023-03-29T23:12:06.138Z,51.67
2023-03-29T23:14:42.818Z,51.28
2023-03-29T23:17:19.087Z,52.13
2023-03-29T23:19:51.441Z,51.91
2023-03-29T23:22:23.718Z,52.30
2023-03-29T23:24:55.296Z,51.92
2023-03-29T23:27:26.820Z,52.31
2023-03-29T23:29:59.511Z,52.98
2023-03-29T23:32:31.161Z,52.43
2023-03-29T23:35:04.442Z,52.84
2023-03-29T23:37:36.029Z,51.77
2023-03-29T23:40:14.363Z,51.03
2023-03-29T23:42:48.323Z,51.11
2023-03-29T23:45:19.886Z,50.99
2023-03-29T23:47:51.824Z,51.56
2023-03-29T23:50:24.888Z,52.03
2023-03-29T23:52:58.290Z,51.53
2023-03-29T23:55:32.097Z,51.90
2023-03-29T23:58:03.637Z,51.34
